sensor_id;sensor_type;location;lat;lon;timestamp;pressure;altitude;pressure_sealevel;temperature;humidity
1832;BME280;1680;48.106;11.708;2023-03-03T00:01:21;95583.78;;;1.05;100.00
1832;BME280;1680;48.106;11.708;2023-03-03T00:03:50;95571.06;;;0.96;100.00
1832;BME280;1680;48.106;11.708;2023-03-03T00:06:19;95575.56;;;1.02;100.00
1832;BME280;1680;48.106;11.708;2023-03-03T00:08:47;95586.34;;;1.05;100.00
1832;BME280;1680;48.106;11.708;2023-03-03T00:11:14;95587.81;;;1.08;100.00
1832;BME280;1680;48.106;11.708;2023-03-03T00:13:44;95548.78;;;0.87;100.00
1832;BME280;1680;48.106;11.708;2023-03-03T00:16:15;95576.38;;;1.02;100.00
1832;BME280;1680;48.106;11.708;2023-03-03T00:18:46;95581.69;;;1.01;100.00
1832;BME280;1680;48.106;11.708;2023-03-03T00:21:31;95580.75;;;0.94;100.00
1832;BME280;1680;48.106;11.708;2023-03-03T00:24:17;95576.22;;;0.88;100.00
1832;BME280;1680;48.106;11.708;2023-03-03T00:26:46;95581.06;;;0.91;100.00
1832;BME280;1680;48.106;11.708;2023-03-03T00:29:35;95580.44;;;0.97;100.00
1832;BME280;1680;48.106;11.708;2023-03-03T00:32:21;95568.47;;;0.88;100.00
1832;BME280;1680;48.106;11.708;2023-03-03T00:34:49;95575.59;;;0.94;100.00
1832;BME280;1680;48.106;11.708;2023-03-03T00:37:30;95573.81;;;0.87;100.00
1832;BME280;1680;48.106;11.708;2023-03-03T00:40:18;95572.03;;;0.79;100.00
1832;BME280;1680;48.106;11.708;2023-03-03T00:42:48;95573.16;;;0.77;100.00
1832;BME280;1680;48.106;11.708;2023-03-03T00:45:33;95569.13;;;0.74;100.00
1832;BME280;1680;48.106;11.708;2023-03-03T00:48:25;95581.84;;;0.76;100.00
1832;BME280;1680;48.106;11.708;2023-03-03T00:50:53;95583.81;;;0.74;100.00
1832;BME280;1680;48.106;11.708;2023-03-03T00:53:24;95581.56;;;0.71;100.00
1832;BME280;1680;48.106;11.708;2023-03-03T00:55:52;95585.59;;;0.73;100.00
1832;BME280;1680;48.106;11.708;2023-03-03T00:58:20;95597.69;;;0.73;100.00
1832;BME280;1680;48.106;11.708;2023-03-03T01:00:49;95583.00;;;0.73;100.00
1832;BME280;1680;48.106;11.708;2023-03-03T01:03:19;95596.72;;;0.74;100.00
1832;BME280;1680;48.106;11.708;2023-03-03T01:05:47;95588.19;;;0.81;100.00
1832;BME280;1680;48.106;11.708;2023-03-03T01:08:15;95585.25;;;0.84;100.00
1832;BME280;1680;48.106;11.708;2023-03-03T01:10:46;95587.84;;;0.76;100.00
1832;BME280;1680;48.106;11.708;2023-03-03T01:13:16;95590.09;;;0.71;100.00
1832;BME280;1680;48.106;11.708;2023-03-03T01:15:44;95584.63;;;0.74;100.00
1832;BME280;1680;48.106;11.708;2023-03-03T01:18:11;95591.88;;;0.71;100.00
1832;BME280;1680;48.106;11.708;2023-03-03T01:20:39;95593.63;;;0.70;100.00
1832;BME280;1680;48.106;11.708;2023-03-03T01:23:08;95593.34;;;0.65;100.00
1832;BME280;1680;48.106;11.708;2023-03-03T01:25:35;95573.16;;;0.61;100.00
1832;BME280;1680;48.106;11.708;2023-03-03T01:28:04;95541.88;;;0.40;100.00
1832;BME280;1680;48.106;11.708;2023-03-03T01:30:31;95585.91;;;0.62;100.00
1832;BME280;1680;48.106;11.708;2023-03-03T01:32:59;95580.75;;;0.62;100.00
1832;BME280;1680;48.106;11.708;2023-03-03T01:35:26;95582.03;;;0.66;100.00
1832;BME280;1680;48.106;11.708;2023-03-03T01:37:54;95568.19;;;0.51;100.00
1832;BME280;1680;48.106;11.708;2023-03-03T01:40:23;95573.00;;;0.54;100.00
1832;BME280;1680;48.106;11.708;2023-03-03T01:42:51;95580.59;;;0.56;100.00
1832;BME280;1680;48.106;11.708;2023-03-03T01:45:21;95576.22;;;0.56;100.00
1832;BME280;1680;48.106;11.708;2023-03-03T01:47:57;95562.03;;;0.60;100.00
1832;BME280;1680;48.106;11.708;2023-03-03T01:50:32;95567.81;;;0.54;100.00
1832;BME280;1680;48.106;11.708;2023-03-03T01:53:03;95559.28;;;0.62;100.00
1832;BME280;1680;48.106;11.708;2023-03-03T01:55:34;95571.56;;;0.60;100.00
1832;BME280;1680;48.106;11.708;2023-03-03T01:58:06;95564.78;;;0.59;100.00
1832;BME280;1680;48.106;11.708;2023-03-03T02:00:38;95562.19;;;0.67;100.00
1832;BME280;1680;48.106;11.708;2023-03-03T02:03:07;95566.56;;;0.66;100.00
1832;BME280;1680;48.106;11.708;2023-03-03T02:05:35;95562.03;;;0.60;100.00
1832;BME280;1680;48.106;11.708;2023-03-03T02:08:04;95563.66;;;0.61;100.00
1832;BME280;1680;48.106;11.708;2023-03-03T02:10:33;95558.50;;;0.61;100.00
1832;BME280;1680;48.106;11.708;2023-03-03T02:13:01;95557.19;;;0.57;100.00
1832;BME280;1680;48.106;11.708;2023-03-03T02:15:30;95566.88;;;0.55;100.00
1832;BME280;1680;48.106;11.708;2023-03-03T02:18:04;95563.16;;;0.50;100.00
1832;BME280;1680;48.106;11.708;2023-03-03T02:20:42;95564.63;;;0.52;100.00
1832;BME280;1680;48.106;11.708;2023-03-03T02:23:16;95564.28;;;0.47;100.00
1832;BME280;1680;48.106;11.708;2023-03-03T02:25:51;95561.25;;;0.44;100.00
1832;BME280;1680;48.106;11.708;2023-03-03T02:28:23;95566.41;;;0.44;100.00
1832;BME280;1680;48.106;11.708;2023-03-03T02:30:54;95566.88;;;0.47;100.00
1832;BME280;1680;48.106;11.708;2023-03-03T02:33:21;95568.50;;;0.48;100.00
1832;BME280;1680;48.106;11.708;2023-03-03T02:35:49;95568.16;;;0.43;100.00
1832;BME280;1680;48.106;11.708;2023-03-03T02:38:20;95567.81;;;0.38;100.00
1832;BME280;1680;48.106;11.708;2023-03-03T02:40:58;95578.00;;;0.40;100.00
1832;BME280;1680;48.106;11.708;2023-03-03T02:43:31;95568.47;;;0.32;100.00
1832;BME280;1680;48.106;11.708;2023-03-03T02:46:00;95575.25;;;0.33;100.00
1832;BME280;1680;48.106;11.708;2023-03-03T02:48:27;95576.22;;;0.32;100.00
1832;BME280;1680;48.106;11.708;2023-03-03T02:50:55;95573.47;;;0.34;100.00
1832;BME280;1680;48.106;11.708;2023-03-03T02:53:22;95568.47;;;0.40;100.00
1832;BME280;1680;48.106;11.708;2023-03-03T02:55:50;95572.50;;;0.35;100.00
1832;BME280;1680;48.106;11.708;2023-03-03T02:58:18;95561.06;;;0.37;100.00
1832;BME280;1680;48.106;11.708;2023-03-03T03:00:46;95557.03;;;0.35;100.00
1832;BME280;1680;48.106;11.708;2023-03-03T03:03:14;95567.50;;;0.33;100.00
1832;BME280;1680;48.106;11.708;2023-03-03T03:05:41;95560.75;;;0.32;100.00
1832;BME280;1680;48.106;11.708;2023-03-03T03:08:08;95555.91;;;0.37;100.00
1832;BME280;1680;48.106;11.708;2023-03-03T03:10:36;95550.75;;;0.37;100.00
1832;BME280;1680;48.106;11.708;2023-03-03T03:13:03;95549.44;;;0.41;100.00
1832;BME280;1680;48.106;11.708;2023-03-03T03:15:30;95553.34;;;0.37;100.00
1832;BME280;1680;48.106;11.708;2023-03-03T03:17:59;95554.78;;;0.40;100.00
1832;BME280;1680;48.106;11.708;2023-03-03T03:20:26;95554.28;;;0.44;100.00
1832;BME280;1680;48.106;11.708;2023-03-03T03:22:53;95561.22;;;0.52;100.00
1832;BME280;1680;48.106;11.708;2023-03-03T03:25:21;95562.66;;;0.54;100.00
1832;BME280;1680;48.106;11.708;2023-03-03T03:27:48;95554.94;;;0.54;100.00
1832;BME280;1680;48.106;11.708;2023-03-03T03:30:15;95553.34;;;0.61;100.00
1832;BME280;1680;48.106;11.708;2023-03-03T03:32:45;95558.19;;;0.64;100.00
1832;BME280;1680;48.106;11.708;2023-03-03T03:35:13;95582.03;;;0.66;100.00
1832;BME280;1680;48.106;11.708;2023-03-03T03:37:41;95568.81;;;0.69;100.00
1832;BME280;1680;48.106;11.708;2023-03-03T03:40:10;95563.97;;;0.74;100.00
1832;BME280;1680;48.106;11.708;2023-03-03T03:42:37;95567.53;;;0.73;100.00
1832;BME280;1680;48.106;11.708;2023-03-03T03:45:06;95574.78;;;0.78;100.00
1832;BME280;1680;48.106;11.708;2023-03-03T03:47:34;95567.34;;;0.83;100.00
1832;BME280;1680;48.106;11.708;2023-03-03T03:50:01;95565.91;;;0.88;100.00
1832;BME280;1680;48.106;11.708;2023-03-03T03:52:29;95565.56;;;0.91;100.00
1832;BME280;1680;48.106;11.708;2023-03-03T03:54:57;95563.31;;;0.96;100.00
1832;BME280;1680;48.106;11.708;2023-03-03T03:57:24;95564.25;;;1.03;100.00
1832;BME280;1680;48.106;11.708;2023-03-03T03:59:52;95533.31;;;0.87;100.00
1832;BME280;1680;48.106;11.708;2023-03-03T04:02:19;95563.94;;;1.06;100.00
1832;BME280;1680;48.106;11.708;2023-03-03T04:04:47;95561.38;;;1.06;100.00
1832;BME280;1680;48.106;11.708;2023-03-03T04:07:14;95563.63;;;1.09;100.00
1832;BME280;1680;48.106;11.708;2023-03-03T04:09:42;95569.25;;;1.12;100.00
1832;BME280;1680;48.106;11.708;2023-03-03T04:12:10;95566.66;;;1.12;100.00
1832;BME280;1680;48.106;11.708;2023-03-03T04:14:37;95573.28;;;1.15;100.00
1832;BME280;1680;48.106;11.708;2023-03-03T04:17:04;95574.25;;;1.22;100.00
1832;BME280;1680;48.106;11.708;2023-03-03T04:19:32;95568.59;;;1.18;100.00
1832;BME280;1680;48.106;11.708;2023-03-03T04:21:59;95569.72;;;1.24;100.00
1832;BME280;1680;48.106;11.708;2023-03-03T04:24:27;95565.03;;;1.27;100.00
1832;BME280;1680;48.106;11.708;2023-03-03T04:26:55;95568.56;;;1.34;100.00
1832;BME280;1680;48.106;11.708;2023-03-03T04:29:22;95570.47;;;1.40;100.00
1832;BME280;1680;48.106;11.708;2023-03-03T04:31:50;95576.28;;;1.42;100.00
1832;BME280;1680;48.106;11.708;2023-03-03T04:34:17;95577.72;;;1.45;100.00
1832;BME280;1680;48.106;11.708;2023-03-03T04:36:44;95584.69;;;1.44;100.00
1832;BME280;1680;48.106;11.708;2023-03-03T04:39:11;95579.00;;;1.49;100.00
1832;BME280;1680;48.106;11.708;2023-03-03T04:41:39;95570.94;;;1.52;100.00
1832;BME280;1680;48.106;11.708;2023-03-03T04:44:07;95576.44;;;1.49;100.00
1832;BME280;1680;48.106;11.708;2023-03-03T04:46:34;95577.06;;;1.51;100.00
1832;BME280;1680;48.106;11.708;2023-03-03T04:49:02;95571.25;;;1.57;100.00
1832;BME280;1680;48.106;11.708;2023-03-03T04:51:31;95567.53;;;1.59;100.00
1832;BME280;1680;48.106;11.708;2023-03-03T04:53:58;95574.16;;;1.54;100.00
1832;BME280;1680;48.106;11.708;2023-03-03T04:56:26;95559.97;;;1.50;100.00
1832;BME280;1680;48.106;11.708;2023-03-03T04:58:54;95571.25;;;1.49;100.00
1832;BME280;1680;48.106;11.708;2023-03-03T05:01:22;95566.69;;;1.59;100.00
1832;BME280;1680;48.106;11.708;2023-03-03T05:03:49;95573.00;;;1.56;100.00
1832;BME280;1680;48.106;11.708;2023-03-03T05:06:17;95570.25;;;1.58;100.00
1832;BME280;1680;48.106;11.708;2023-03-03T05:08:44;95572.19;;;1.64;100.00
1832;BME280;1680;48.106;11.708;2023-03-03T05:11:12;95564.44;;;1.64;100.00
1832;BME280;1680;48.106;11.708;2023-03-03T05:13:39;95527.38;;;1.41;100.00
1832;BME280;1680;48.106;11.708;2023-03-03T05:16:07;95571.22;;;1.65;100.00
1832;BME280;1680;48.106;11.708;2023-03-03T05:18:36;95572.97;;;1.72;100.00
1832;BME280;1680;48.106;11.708;2023-03-03T05:21:04;95571.34;;;1.71;100.00
1832;BME280;1680;48.106;11.708;2023-03-03T05:23:31;95570.19;;;1.74;100.00
1832;BME280;1680;48.106;11.708;2023-03-03T05:25:58;95575.69;;;1.79;100.00
1832;BME280;1680;48.106;11.708;2023-03-03T05:28:26;95562.75;;;1.79;100.00
1832;BME280;1680;48.106;11.708;2023-03-03T05:30:54;95563.72;;;1.78;100.00
1832;BME280;1680;48.106;11.708;2023-03-03T05:33:21;95568.75;;;1.71;100.00
1832;BME280;1680;48.106;11.708;2023-03-03T05:35:53;95570.38;;;1.72;100.00
1832;BME280;1680;48.106;11.708;2023-03-03T05:38:21;95568.56;;;1.73;100.00
1832;BME280;1680;48.106;11.708;2023-03-03T05:40:48;95581.81;;;1.78;100.00
1832;BME280;1680;48.106;11.708;2023-03-03T05:43:15;95582.50;;;1.72;100.00
1832;BME280;1680;48.106;11.708;2023-03-03T05:45:42;95586.53;;;1.74;100.00
1832;BME280;1680;48.106;11.708;2023-03-03T05:48:10;95590.53;;;1.77;100.00
1832;BME280;1680;48.106;11.708;2023-03-03T05:50:37;95554.94;;;1.56;100.00
1832;BME280;1680;48.106;11.708;2023-03-03T05:53:06;95589.88;;;1.83;100.00
1832;BME280;1680;48.106;11.708;2023-03-03T05:55:33;95596.66;;;1.84;100.00
1832;BME280;1680;48.106;11.708;2023-03-03T05:58:01;95602.47;;;1.86;100.00
1832;BME280;1680;48.106;11.708;2023-03-03T06:00:28;95608.56;;;1.92;100.00
1832;BME280;1680;48.106;11.708;2023-03-03T06:02:55;95608.06;;;1.97;100.00
1832;BME280;1680;48.106;11.708;2023-03-03T06:05:22;95596.94;;;1.96;100.00
1832;BME280;1680;48.106;11.708;2023-03-03T06:07:49;95598.88;;;1.94;100.00
1832;BME280;1680;48.106;11.708;2023-03-03T06:10:18;95599.06;;;1.93;100.00
1832;BME280;1680;48.106;11.708;2023-03-03T06:12:46;95585.19;;;1.86;100.00
1832;BME280;1680;48.106;11.708;2023-03-03T06:15:13;95603.72;;;1.97;100.00
1832;BME280;1680;48.106;11.708;2023-03-03T06:17:41;95610.50;;;1.98;100.00
1832;BME280;1680;48.106;11.708;2023-03-03T06:20:09;95603.38;;;2.00;100.00
1832;BME280;1680;48.106;11.708;2023-03-03T06:22:36;95616.34;;;1.92;100.00
1832;BME280;1680;48.106;11.708;2023-03-03T06:25:04;95619.88;;;1.91;100.00
1832;BME280;1680;48.106;11.708;2023-03-03T06:27:33;95632.81;;;1.99;100.00
1832;BME280;1680;48.106;11.708;2023-03-03T06:30:00;95629.84;;;2.10;100.00
1832;BME280;1680;48.106;11.708;2023-03-03T06:32:28;95629.84;;;2.10;100.00
1832;BME280;1680;48.106;11.708;2023-03-03T06:34:55;95613.38;;;2.03;100.00
1832;BME280;1680;48.106;11.708;2023-03-03T06:37:22;95627.72;;;2.14;100.00
1832;BME280;1680;48.106;11.708;2023-03-03T06:39:50;95631.25;;;2.21;100.00
1832;BME280;1680;48.106;11.708;2023-03-03T06:42:17;95626.88;;;2.21;100.00
1832;BME280;1680;48.106;11.708;2023-03-03T06:44:46;95620.56;;;2.24;100.00
1832;BME280;1680;48.106;11.708;2023-03-03T06:47:14;95629.06;;;2.32;100.00
1832;BME280;1680;48.106;11.708;2023-03-03T06:49:41;95620.34;;;2.33;100.00
1832;BME280;1680;48.106;11.708;2023-03-03T06:52:11;95621.94;;;2.34;100.00
1832;BME280;1680;48.106;11.708;2023-03-03T06:54:39;95617.13;;;2.31;100.00
1832;BME280;1680;48.106;11.708;2023-03-03T06:57:15;95619.41;;;2.26;100.00
1832;BME280;1680;48.106;11.708;2023-03-03T06:59:43;95634.03;;;2.42;100.00
1832;BME280;1680;48.106;11.708;2023-03-03T07:02:16;95637.25;;;2.44;100.00
1832;BME280;1680;48.106;11.708;2023-03-03T07:04:44;95636.41;;;2.51;100.00
1832;BME280;1680;48.106;11.708;2023-03-03T07:07:16;95642.91;;;2.47;100.00
1832;BME280;1680;48.106;11.708;2023-03-03T07:09:46;95617.72;;;2.41;100.00
1832;BME280;1680;48.106;11.708;2023-03-03T07:12:17;95647.00;;;2.64;100.00
1832;BME280;1680;48.106;11.708;2023-03-03T07:14:45;95586.25;;;2.30;100.00
1832;BME280;1680;48.106;11.708;2023-03-03T07:17:18;95647.63;;;2.66;100.00
1832;BME280;1680;48.106;11.708;2023-03-03T07:19:46;95641.78;;;2.72;100.00
1832;BME280;1680;48.106;11.708;2023-03-03T07:22:15;95647.59;;;2.74;100.00
1832;BME280;1680;48.106;11.708;2023-03-03T07:24:46;95643.41;;;2.73;100.00
1832;BME280;1680;48.106;11.708;2023-03-03T07:27:19;95652.16;;;2.72;100.00
1832;BME280;1680;48.106;11.708;2023-03-03T07:29:51;95659.59;;;2.67;100.00
1832;BME280;1680;48.106;11.708;2023-03-03T07:32:37;95658.94;;;2.73;100.00
1832;BME280;1680;48.106;11.708;2023-03-03T07:35:23;95668.59;;;2.79;100.00
1832;BME280;1680;48.106;11.708;2023-03-03T07:37:54;95671.13;;;2.87;100.00
1832;BME280;1680;48.106;11.708;2023-03-03T07:40:30;95678.84;;;2.95;100.00
1832;BME280;1680;48.106;11.708;2023-03-03T07:43:11;95680.47;;;2.96;100.00
1832;BME280;1680;48.106;11.708;2023-03-03T07:45:43;95678.84;;;2.95;100.00
1832;BME280;1680;48.106;11.708;2023-03-03T07:48:18;95680.78;;;2.93;100.00
1832;BME280;1680;48.106;11.708;2023-03-03T07:50:50;95686.28;;;2.98;100.00
1832;BME280;1680;48.106;11.708;2023-03-03T07:53:23;95683.91;;;3.11;100.00
1832;BME280;1680;48.106;11.708;2023-03-03T07:55:52;95677.06;;;3.18;100.00
1832;BME280;1680;48.106;11.708;2023-03-03T07:58:22;95690.25;;;3.31;100.00
1832;BME280;1680;48.106;11.708;2023-03-03T08:03:55;95693.88;;;3.59;100.00
1832;BME280;1680;48.106;11.708;2023-03-03T08:06:35;95693.81;;;3.67;100.00
1832;BME280;1680;48.106;11.708;2023-03-03T08:09:22;95690.34;;;3.74;100.00
1832;BME280;1680;48.106;11.708;2023-03-03T08:11:54;95687.94;;;3.87;100.00
1832;BME280;1680;48.106;11.708;2023-03-03T08:14:25;95682.13;;;3.99;100.00
1832;BME280;1680;48.106;11.708;2023-03-03T08:16:54;95683.38;;;4.03;100.00
1832;BME280;1680;48.106;11.708;2023-03-03T08:19:23;95686.63;;;4.05;100.00
1832;BME280;1680;48.106;11.708;2023-03-03T08:21:51;95684.00;;;4.05;100.00
1832;BME280;1680;48.106;11.708;2023-03-03T08:24:25;95678.72;;;4.13;100.00
1832;BME280;1680;48.106;11.708;2023-03-03T08:26:52;95682.50;;;4.25;100.00
1832;BME280;1680;48.106;11.708;2023-03-03T08:29:19;95680.97;;;4.31;100.00
1832;BME280;1680;48.106;11.708;2023-03-03T08:31:47;95686.13;;;4.45;100.00
1832;BME280;1680;48.106;11.708;2023-03-03T08:34:14;95681.72;;;4.60;100.00
1832;BME280;1680;48.106;11.708;2023-03-03T08:36:42;95687.91;;;4.59;100.00
1832;BME280;1680;48.106;11.708;2023-03-03T08:39:12;95691.44;;;4.37;100.00
1832;BME280;1680;48.106;11.708;2023-03-03T08:41:40;95688.19;;;4.50;100.00
1832;BME280;1680;48.106;11.708;2023-03-03T08:44:08;95696.44;;;4.53;100.00
1832;BME280;1680;48.106;11.708;2023-03-03T08:46:36;95673.06;;;4.39;100.00
1832;BME280;1680;48.106;11.708;2023-03-03T08:49:03;95696.66;;;4.73;100.00
1832;BME280;1680;48.106;11.708;2023-03-03T08:51:30;95689.28;;;4.55;100.00
1832;BME280;1680;48.106;11.708;2023-03-03T08:54:00;95705.00;;;4.68;100.00
1832;BME280;1680;48.106;11.708;2023-03-03T08:56:28;95702.66;;;4.73;100.00
1832;BME280;1680;48.106;11.708;2023-03-03T08:58:55;95706.63;;;4.90;100.00
1832;BME280;1680;48.106;11.708;2023-03-03T09:01:22;95709.78;;;5.00;100.00
1832;BME280;1680;48.106;11.708;2023-03-03T09:03:49;95717.78;;;5.05;100.00
1832;BME280;1680;48.106;11.708;2023-03-03T09:06:16;95718.31;;;5.15;100.00
1832;BME280;1680;48.106;11.708;2023-03-03T09:08:44;95717.69;;;5.34;100.00
1832;BME280;1680;48.106;11.708;2023-03-03T09:11:13;95713.25;;;5.28;100.00
1832;BME280;1680;48.106;11.708;2023-03-03T09:13:40;95711.81;;;5.46;100.00
1832;BME280;1680;48.106;11.708;2023-03-03T09:16:11;95710.63;;;5.49;100.00
1832;BME280;1680;48.106;11.708;2023-03-03T09:18:41;95712.25;;;5.50;99.88
1832;BME280;1680;48.106;11.708;2023-03-03T09:21:20;95694.91;;;5.57;100.00
1832;BME280;1680;48.106;11.708;2023-03-03T09:23:53;95712.25;;;5.50;100.00
1832;BME280;1680;48.106;11.708;2023-03-03T09:26:25;95718.06;;;5.52;100.00
1832;BME280;1680;48.106;11.708;2023-03-03T09:28:57;95712.19;;;5.64;100.00
1832;BME280;1680;48.106;11.708;2023-03-03T09:31:35;95708.03;;;5.70;99.43
1832;BME280;1680;48.106;11.708;2023-03-03T09:34:13;95714.94;;;5.63;99.17
1832;BME280;1680;48.106;11.708;2023-03-03T09:36:42;95713.66;;;5.73;96.94
1832;BME280;1680;48.106;11.708;2023-03-03T09:39:16;95727.69;;;5.51;99.17
1832;BME280;1680;48.106;11.708;2023-03-03T09:44:55;95719.06;;;5.51;99.04
1832;BME280;1680;48.106;11.708;2023-03-03T09:47:34;95734.03;;;5.90;96.87
1832;BME280;1680;48.106;11.708;2023-03-03T09:50:15;95724.06;;;5.94;97.31
1832;BME280;1680;48.106;11.708;2023-03-03T09:52:51;95710.66;;;6.31;100.00
1832;BME280;1680;48.106;11.708;2023-03-03T09:55:40;95730.78;;;6.83;92.11
1832;BME280;1680;48.106;11.708;2023-03-03T09:58:43;95737.63;;;6.91;90.55
1832;BME280;1680;48.106;11.708;2023-03-03T10:01:26;95738.44;;;6.98;88.11
1832;BME280;1680;48.106;11.708;2023-03-03T10:04:15;95754.00;;;6.78;88.91
1832;BME280;1680;48.106;11.708;2023-03-03T10:06:48;95741.88;;;6.58;90.50
1832;BME280;1680;48.106;11.708;2023-03-03T10:09:34;95744.94;;;6.28;90.07
1832;BME280;1680;48.106;11.708;2023-03-03T10:12:10;95735.41;;;6.48;89.63
1832;BME280;1680;48.106;11.708;2023-03-03T10:15:01;95746.03;;;6.46;91.10
1832;BME280;1680;48.106;11.708;2023-03-03T10:17:39;95749.09;;;6.56;89.54
1832;BME280;1680;48.106;11.708;2023-03-03T10:23:09;95749.78;;;6.71;88.77
1832;BME280;1680;48.106;11.708;2023-03-03T10:25:41;95753.53;;;6.62;88.57
1832;BME280;1680;48.106;11.708;2023-03-03T10:28:22;95749.78;;;6.71;87.55
1832;BME280;1680;48.106;11.708;2023-03-03T10:31:04;95755.59;;;6.73;88.51
1832;BME280;1680;48.106;11.708;2023-03-03T10:33:43;95760.81;;;6.73;92.94
1832;BME280;1680;48.106;11.708;2023-03-03T10:36:22;95765.13;;;7.00;86.83
1832;BME280;1680;48.106;11.708;2023-03-03T10:39:02;95757.81;;;6.42;88.84
1832;BME280;1680;48.106;11.708;2023-03-03T10:41:56;95756.34;;;6.67;87.65
1832;BME280;1680;48.106;11.708;2023-03-03T10:44:47;95752.09;;;6.60;87.10
1832;BME280;1680;48.106;11.708;2023-03-03T10:47:31;95755.22;;;6.76;87.15
1832;BME280;1680;48.106;11.708;2023-03-03T10:50:09;95754.31;;;6.56;88.82
1832;BME280;1680;48.106;11.708;2023-03-03T10:52:43;95759.94;;;7.06;87.78
1832;BME280;1680;48.106;11.708;2023-03-03T10:55:32;95743.78;;;7.24;87.73
1832;BME280;1680;48.106;11.708;2023-03-03T10:58:22;95724.53;;;7.25;85.39
1832;BME280;1680;48.106;11.708;2023-03-03T11:01:03;95749.72;;;7.05;85.65
1832;BME280;1680;48.106;11.708;2023-03-03T11:06:42;95751.16;;;7.14;89.16
1832;BME280;1680;48.106;11.708;2023-03-03T11:09:23;95749.63;;;7.32;86.83
1832;BME280;1680;48.106;11.708;2023-03-03T11:11:56;95752.06;;;7.60;85.57
1832;BME280;1680;48.106;11.708;2023-03-03T11:14:29;95757.72;;;7.69;84.47
1832;BME280;1680;48.106;11.708;2023-03-03T11:17:03;95755.50;;;7.99;81.31
1832;BME280;1680;48.106;11.708;2023-03-03T11:19:42;95765.56;;;7.82;81.60
1832;BME280;1680;48.106;11.708;2023-03-03T11:22:29;95774.38;;;7.68;80.81
1832;BME280;1680;48.106;11.708;2023-03-03T11:25:04;95768.91;;;7.38;83.12
1832;BME280;1680;48.106;11.708;2023-03-03T11:30:48;95705.50;;;6.84;82.44
1832;BME280;1680;48.106;11.708;2023-03-03T11:33:20;95770.00;;;7.16;84.30
1832;BME280;1680;48.106;11.708;2023-03-03T11:35:57;95761.63;;;7.27;84.36
1832;BME280;1680;48.106;11.708;2023-03-03T11:38:42;95766.50;;;7.49;83.68
1832;BME280;1680;48.106;11.708;2023-03-03T11:41:19;95761.31;;;7.56;83.81
1832;BME280;1680;48.106;11.708;2023-03-03T11:43:51;95758.34;;;7.78;81.56
1832;BME280;1680;48.106;11.708;2023-03-03T11:46:22;95751.91;;;7.80;80.15
1832;BME280;1680;48.106;11.708;2023-03-03T11:48:54;95745.06;;;7.79;80.94
1832;BME280;1680;48.106;11.708;2023-03-03T11:51:35;95734.22;;;7.89;80.22
1832;BME280;1680;48.106;11.708;2023-03-03T11:54:09;95729.41;;;7.99;79.95
1832;BME280;1680;48.106;11.708;2023-03-03T11:56:41;95722.19;;;7.94;81.51
1832;BME280;1680;48.106;11.708;2023-03-03T11:59:32;95724.78;;;7.94;80.94
1832;BME280;1680;48.106;11.708;2023-03-03T12:02:06;95723.56;;;8.03;80.09
1832;BME280;1680;48.106;11.708;2023-03-03T12:04:44;95703.09;;;7.62;80.06
1832;BME280;1680;48.106;11.708;2023-03-03T12:07:23;95718.97;;;7.92;80.20
1832;BME280;1680;48.106;11.708;2023-03-03T12:10:02;95721.56;;;8.18;79.96
1832;BME280;1680;48.106;11.708;2023-03-03T12:12:38;95708.91;;;8.15;80.16
1832;BME280;1680;48.106;11.708;2023-03-03T12:15:17;95707.31;;;8.34;79.91
1832;BME280;1680;48.106;11.708;2023-03-03T12:18:13;95708.94;;;8.28;79.49
1832;BME280;1680;48.106;11.708;2023-03-03T12:20:49;95719.38;;;8.28;80.39
1832;BME280;1680;48.106;11.708;2023-03-03T12:23:45;95721.69;;;8.62;90.06
1832;BME280;1680;48.106;11.708;2023-03-03T12:26:24;95712.97;;;8.87;76.15
1832;BME280;1680;48.106;11.708;2023-03-03T12:28:57;95722.72;;;8.68;74.99
1832;BME280;1680;48.106;11.708;2023-03-03T12:31:32;95719.06;;;8.75;75.02
1832;BME280;1680;48.106;11.708;2023-03-03T12:34:10;95717.22;;;8.82;75.81
1832;BME280;1680;48.106;11.708;2023-03-03T12:36:49;95710.03;;;9.15;74.84
1832;BME280;1680;48.106;11.708;2023-03-03T12:39:41;95700.53;;;9.20;74.33
1832;BME280;1680;48.106;11.708;2023-03-03T12:42:20;95702.47;;;8.94;73.26
1832;BME280;1680;48.106;11.708;2023-03-03T12:44:57;95694.31;;;8.77;74.60
1832;BME280;1680;48.106;11.708;2023-03-03T12:47:33;95713.78;;;8.88;74.30
1832;BME280;1680;48.106;11.708;2023-03-03T12:50:13;95710.16;;;8.89;75.30
1832;BME280;1680;48.106;11.708;2023-03-03T12:52:55;95711.81;;;8.70;75.27
1832;BME280;1680;48.106;11.708;2023-03-03T12:55:36;95707.72;;;8.24;76.99
1832;BME280;1680;48.106;11.708;2023-03-03T12:58:15;95700.84;;;8.36;76.73
1832;BME280;1680;48.106;11.708;2023-03-03T13:00:53;95708.22;;;8.65;83.03
1832;BME280;1680;48.106;11.708;2023-03-03T13:03:35;95706.50;;;9.34;74.83
1832;BME280;1680;48.106;11.708;2023-03-03T13:06:12;95689.88;;;8.78;75.22
1832;BME280;1680;48.106;11.708;2023-03-03T13:08:53;95706.19;;;9.17;73.97
1832;BME280;1680;48.106;11.708;2023-03-03T13:11:44;95707.06;;;9.05;74.26
1832;BME280;1680;48.106;11.708;2023-03-03T13:14:23;95703.78;;;9.16;74.17
1832;BME280;1680;48.106;11.708;2023-03-03T13:17:02;95710.75;;;8.91;73.92
1832;BME280;1680;48.106;11.708;2023-03-03T13:19:33;95704.41;;;8.68;75.13
1832;BME280;1680;48.106;11.708;2023-03-03T13:22:08;95715.13;;;8.97;74.46
1832;BME280;1680;48.106;11.708;2023-03-03T13:24:48;95714.78;;;8.87;74.60
1832;BME280;1680;48.106;11.708;2023-03-03T13:27:24;95706.19;;;8.73;75.34
1832;BME280;1680;48.106;11.708;2023-03-03T13:29:58;95701.16;;;8.72;75.99
1832;BME280;1680;48.106;11.708;2023-03-03T13:32:34;95694.56;;;8.57;75.61
1832;BME280;1680;48.106;11.708;2023-03-03T13:35:07;95685.19;;;8.36;76.04
1832;BME280;1680;48.106;11.708;2023-03-03T13:37:38;95701.44;;;8.45;76.44
1832;BME280;1680;48.106;11.708;2023-03-03T13:40:16;95686.81;;;8.11;76.72
1832;BME280;1680;48.106;11.708;2023-03-03T13:42:49;95697.44;;;8.03;77.82
1832;BME280;1680;48.106;11.708;2023-03-03T13:45:22;95687.19;;;8.15;78.76
1832;BME280;1680;48.106;11.708;2023-03-03T13:47:58;95684.22;;;8.18;78.22
1832;BME280;1680;48.106;11.708;2023-03-03T13:50:30;95681.97;;;8.34;77.96
1832;BME280;1680;48.106;11.708;2023-03-03T13:53:22;95688.69;;;8.74;77.01
1832;BME280;1680;48.106;11.708;2023-03-03T13:55:59;95683.94;;;8.52;76.99
1832;BME280;1680;48.106;11.708;2023-03-03T13:58:36;95680.28;;;8.66;76.37